Time;durP1;ratioP1;P1;durP2;ratioP2;P2;SDS_P1;SDS_P2;PMS_P1;PMS_P2;Temp;Humidity;BMP_temperature;BMP_pressure;BME280_temperature;BME280_humidity;BME280_pressure;Samples;Min_cycle;Max_cycle;Signal;HPM_P1;HPM_P2
2024/01/25 00:01:14;;;;;;;20.30;3.77;;;;;;;;;;5030064;28;20202;-72
2024/01/25 00:03:39;;;;;;;18.67;3.40;;;;;;;;;;5027260;28;20320;-71
2024/01/25 00:06:05;;;;;;;27.07;4.47;;;;;;;;;;5026361;28;20712;-71
2024/01/25 00:08:30;;;;;;;20.60;5.87;;;;;;;;;;5018805;28;20198;-72
2024/01/25 00:10:56;;;;;;;26.00;5.70;;;;;;;;;;5029343;28;20178;-72
2024/01/25 00:13:21;;;;;;;17.90;4.17;;;;;;;;;;5021730;28;20202;-72
2024/01/25 00:15:46;;;;;;;22.17;4.03;;;;;;;;;;5027047;28;20197;-72
2024/01/25 00:18:11;;;;;;;17.43;4.77;;;;;;;;;;5029569;28;20166;-72
2024/01/25 00:20:37;;;;;;;22.60;3.80;;;;;;;;;;5011247;28;20185;-72
2024/01/25 00:23:02;;;;;;;16.17;5.67;;;;;;;;;;5011167;28;20558;-73
2024/01/25 00:25:27;;;;;;;18.53;3.87;;;;;;;;;;5030771;28;20201;-72
2024/01/25 00:27:52;;;;;;;18.37;4.07;;;;;;;;;;5024852;28;20186;-72
2024/01/25 00:30:18;;;;;;;26.77;4.67;;;;;;;;;;5020271;28;20680;-72
2024/01/25 00:32:43;;;;;;;22.80;5.00;;;;;;;;;;5006312;28;20658;-71
2024/01/25 00:35:10;;;;;;;21.70;4.23;;;;;;;;;;5023960;28;20201;-71
2024/01/25 00:37:35;;;;;;;21.03;4.73;;;;;;;;;;5028430;28;20210;-71
2024/01/25 00:40:01;;;;;;;22.77;5.60;;;;;;;;;;5031277;28;20645;-71
2024/01/25 00:42:26;;;;;;;21.17;4.73;;;;;;;;;;5029817;28;20700;-71
2024/01/25 00:44:52;;;;;;;26.93;4.07;;;;;;;;;;5026575;28;20723;-71
2024/01/25 00:47:18;;;;;;;21.87;4.53;;;;;;;;;;5025886;28;20265;-71
2024/01/25 00:49:43;;;;;;;17.53;4.37;;;;;;;;;;5028913;28;20182;-72
2024/01/25 00:52:08;;;;;;;17.40;4.13;;;;;;;;;;5030435;28;20186;-71
2024/01/25 00:54:34;;;;;;;20.03;6.23;;;;;;;;;;5029517;28;20213;-72
2024/01/25 00:56:59;;;;;;;18.90;3.90;;;;;;;;;;5028947;28;20176;-72
2024/01/25 00:59:25;;;;;;;23.63;4.13;;;;;;;;;;5027822;28;20170;-72
2024/01/25 01:01:52;;;;;;;26.87;5.70;;;;;;;;;;5032849;28;20175;-72
2024/01/25 01:04:17;;;;;;;22.53;4.43;;;;;;;;;;5007047;28;20202;-72
2024/01/25 01:06:42;;;;;;;23.23;6.20;;;;;;;;;;5017660;28;20650;-72
2024/01/25 01:09:08;;;;;;;35.97;4.67;;;;;;;;;;5009651;28;20182;-72
2024/01/25 01:11:34;;;;;;;17.80;5.03;;;;;;;;;;5006742;28;20245;-71
2024/01/25 01:13:59;;;;;;;19.97;4.37;;;;;;;;;;5009106;28;20206;-72
2024/01/25 01:16:24;;;;;;;17.03;4.47;;;;;;;;;;5027297;28;20220;-71
2024/01/25 01:18:49;;;;;;;20.27;5.00;;;;;;;;;;5029227;28;20231;-71
2024/01/25 01:21:14;;;;;;;23.97;4.63;;;;;;;;;;5027757;28;20174;-71
2024/01/25 01:23:40;;;;;;;23.17;5.10;;;;;;;;;;5020843;28;20199;-71
2024/01/25 01:26:05;;;;;;;17.70;4.37;;;;;;;;;;5024014;28;20250;-72
2024/01/25 01:28:30;;;;;;;27.57;5.03;;;;;;;;;;5028132;28;20179;-72
2024/01/25 01:30:56;;;;;;;19.33;3.87;;;;;;;;;;5028077;28;20187;-72
2024/01/25 01:33:21;;;;;;;18.50;4.00;;;;;;;;;;5029173;28;20205;-72
2024/01/25 01:35:46;;;;;;;22.90;4.87;;;;;;;;;;5027446;28;20289;-72
2024/01/25 01:38:11;;;;;;;16.67;4.17;;;;;;;;;;5030400;28;20181;-72
2024/01/25 01:40:37;;;;;;;29.00;5.63;;;;;;;;;;5028465;28;20170;-72
2024/01/25 01:43:02;;;;;;;22.90;4.00;;;;;;;;;;5023556;28;20678;-71
2024/01/25 01:45:27;;;;;;;20.03;3.73;;;;;;;;;;5023704;28;20185;-73
2024/01/25 01:47:53;;;;;;;24.53;4.67;;;;;;;;;;5015150;28;20178;-72
2024/01/25 01:50:19;;;;;;;14.63;4.20;;;;;;;;;;5030263;28;20273;-72
2024/01/25 01:52:45;;;;;;;29.33;5.43;;;;;;;;;;5030444;28;20743;-72
2024/01/25 01:55:10;;;;;;;21.77;4.90;;;;;;;;;;5007713;28;20226;-71
2024/01/25 01:57:36;;;;;;;19.70;4.37;;;;;;;;;;5025838;28;20581;-71
2024/01/25 02:00:04;;;;;;;18.73;3.67;;;;;;;;;;5029628;28;20803;-72
2024/01/25 02:02:29;;;;;;;22.93;5.10;;;;;;;;;;4999840;28;20638;-72
2024/01/25 02:04:54;;;;;;;21.67;5.73;;;;;;;;;;5006300;28;20210;-72
2024/01/25 02:07:19;;;;;;;28.87;5.73;;;;;;;;;;5039028;28;20667;-72
2024/01/25 02:09:45;;;;;;;22.37;5.07;;;;;;;;;;5035090;28;20178;-72
2024/01/25 02:12:10;;;;;;;21.50;5.00;;;;;;;;;;5007868;28;20186;-72
2024/01/25 02:14:36;;;;;;;22.07;3.90;;;;;;;;;;5033117;28;20301;-73
2024/01/25 02:17:01;;;;;;;18.10;4.53;;;;;;;;;;5035371;28;20659;-71
2024/01/25 02:19:26;;;;;;;22.00;4.57;;;;;;;;;;5032946;28;20646;-71
2024/01/25 02:21:53;;;;;;;22.00;4.40;;;;;;;;;;5011766;28;20511;-72
2024/01/25 02:24:18;;;;;;;22.33;5.33;;;;;;;;;;5032899;28;20202;-72
2024/01/25 02:26:44;;;;;;;23.67;5.00;;;;;;;;;;5030960;28;20182;-72
2024/01/25 02:29:09;;;;;;;19.27;4.27;;;;;;;;;;5030326;28;20193;-71
2024/01/25 02:31:35;;;;;;;14.17;4.07;;;;;;;;;;5031199;28;20182;-72
2024/01/25 02:34:00;;;;;;;23.30;4.47;;;;;;;;;;5030058;28;20577;-72
2024/01/25 02:36:25;;;;;;;22.40;3.73;;;;;;;;;;5030215;28;20205;-72
2024/01/25 02:38:50;;;;;;;18.13;4.50;;;;;;;;;;5018721;28;20178;-72
2024/01/25 02:41:15;;;;;;;17.70;4.00;;;;;;;;;;5003866;28;20304;-71
2024/01/25 02:43:41;;;;;;;21.23;5.20;;;;;;;;;;5031488;28;20327;-72
2024/01/25 02:46:07;;;;;;;18.73;3.77;;;;;;;;;;5011240;28;20215;-71
2024/01/25 02:48:32;;;;;;;18.87;3.70;;;;;;;;;;5031776;28;20210;-72
2024/01/25 02:50:57;;;;;;;17.27;4.10;;;;;;;;;;5030920;28;20594;-72
2024/01/25 02:53:23;;;;;;;21.20;4.93;;;;;;;;;;5031350;28;20634;-71
2024/01/25 02:55:48;;;;;;;21.30;3.80;;;;;;;;;;5030256;28;20264;-72
2024/01/25 02:58:13;;;;;;;22.33;4.60;;;;;;;;;;5016377;28;20179;-72
2024/01/25 03:00:38;;;;;;;13.30;4.13;;;;;;;;;;5023775;28;20665;-72
2024/01/25 03:03:04;;;;;;;19.80;4.73;;;;;;;;;;5011559;28;20198;-72
2024/01/25 03:05:29;;;;;;;35.27;5.37;;;;;;;;;;5031833;28;20178;-71
2024/01/25 03:07:54;;;;;;;21.67;5.10;;;;;;;;;;5030655;28;20217;-71
2024/01/25 03:10:20;;;;;;;22.57;4.47;;;;;;;;;;5008257;28;20213;-72
2024/01/25 03:12:45;;;;;;;29.63;5.30;;;;;;;;;;5019507;28;20269;-72
2024/01/25 03:15:11;;;;;;;31.57;4.73;;;;;;;;;;5020459;28;20256;-71
2024/01/25 03:17:36;;;;;;;22.20;5.03;;;;;;;;;;5001114;28;20214;-72
2024/01/25 03:20:01;;;;;;;28.53;5.50;;;;;;;;;;5027620;28;20177;-72
2024/01/25 03:22:26;;;;;;;21.50;4.17;;;;;;;;;;5029521;28;20178;-72
2024/01/25 03:24:51;;;;;;;25.60;6.00;;;;;;;;;;5012746;28;20208;-71
2024/01/25 03:27:17;;;;;;;20.37;4.60;;;;;;;;;;5030422;28;20174;-72
2024/01/25 03:29:43;;;;;;;17.63;4.47;;;;;;;;;;5030685;28;20185;-72
2024/01/25 03:32:08;;;;;;;27.63;4.57;;;;;;;;;;5029963;28;20235;-72
2024/01/25 03:34:33;;;;;;;26.47;5.07;;;;;;;;;;5024385;28;20222;-72
2024/01/25 03:36:58;;;;;;;17.47;3.97;;;;;;;;;;5017765;28;20218;-72
2024/01/25 03:39:24;;;;;;;21.97;4.60;;;;;;;;;;5023547;28;20178;-72
2024/01/25 03:41:49;;;;;;;19.40;4.53;;;;;;;;;;5026979;28;20178;-71
2024/01/25 03:44:14;;;;;;;17.83;5.07;;;;;;;;;;5044696;22;20222;-68
2024/01/25 03:46:39;;;;;;;19.90;4.97;;;;;;;;;;5024068;28;20178;-69
2024/01/25 03:49:04;;;;;;;19.23;4.20;;;;;;;;;;5030626;28;20183;-68
2024/01/25 03:51:30;;;;;;;26.10;4.97;;;;;;;;;;5029359;28;20174;-69
2024/01/25 03:53:58;;;;;;;18.57;4.00;;;;;;;;;;5033217;28;20190;-67
2024/01/25 03:56:23;;;;;;;31.23;4.80;;;;;;;;;;5049338;28;20174;-69
2024/01/25 03:58:49;;;;;;;17.67;4.17;;;;;;;;;;5037537;28;20719;-70
2024/01/25 04:01:14;;;;;;;18.50;3.53;;;;;;;;;;5019407;28;20178;-70
2024/01/25 04:03:39;;;;;;;31.67;5.40;;;;;;;;;;5023613;28;20193;-69
2024/01/25 04:06:04;;;;;;;15.80;4.60;;;;;;;;;;5030174;28;20178;-70
2024/01/25 04:08:29;;;;;;;28.27;4.90;;;;;;;;;;5012107;28;20182;-68
2024/01/25 04:10:55;;;;;;;21.97;4.67;;;;;;;;;;5029169;28;20209;-69
2024/01/25 04:13:20;;;;;;;24.40;4.53;;;;;;;;;;5030133;28;20653;-68
2024/01/25 04:15:45;;;;;;;30.83;6.60;;;;;;;;;;5012925;28;20689;-69
2024/01/25 04:18:10;;;;;;;18.70;4.67;;;;;;;;;;5027626;28;20178;-69
2024/01/25 04:20:36;;;;;;;21.63;6.10;;;;;;;;;;5000134;28;20673;-69
2024/01/25 04:23:01;;;;;;;18.43;4.90;;;;;;;;;;5016019;28;20174;-69
2024/01/25 04:25:26;;;;;;;19.20;5.40;;;;;;;;;;5026680;28;20181;-69
2024/01/25 04:27:52;;;;;;;24.53;6.20;;;;;;;;;;5028681;28;20676;-69
2024/01/25 04:30:18;;;;;;;14.70;4.83;;;;;;;;;;5028229;28;20576;-70
2024/01/25 04:32:43;;;;;;;20.10;4.70;;;;;;;;;;5029364;28;20182;-69
2024/01/25 04:35:09;;;;;;;24.20;4.83;;;;;;;;;;5029571;28;20212;-70
2024/01/25 04:37:34;;;;;;;15.90;4.13;;;;;;;;;;5030250;28;20186;-69
2024/01/25 04:39:59;;;;;;;15.37;4.00;;;;;;;;;;5016062;28;20183;-69
2024/01/25 04:42:25;;;;;;;20.10;4.03;;;;;;;;;;5026448;28;20221;-70
2024/01/25 04:44:50;;;;;;;19.27;4.77;;;;;;;;;;5009403;28;20202;-69
2024/01/25 04:47:15;;;;;;;14.33;4.03;;;;;;;;;;5011063;28;20166;-70
2024/01/25 04:49:40;;;;;;;13.60;4.17;;;;;;;;;;5022344;28;20181;-70
2024/01/25 04:52:05;;;;;;;15.20;4.07;;;;;;;;;;5031552;28;20190;-69
2024/01/25 04:54:30;;;;;;;22.67;4.60;;;;;;;;;;5029899;28;20206;-69
2024/01/25 04:56:56;;;;;;;19.43;5.20;;;;;;;;;;5028049;28;20560;-70
2024/01/25 04:59:21;;;;;;;22.70;6.70;;;;;;;;;;5009369;28;20261;-67
2024/01/25 05:01:47;;;;;;;15.97;4.43;;;;;;;;;;5029967;28;20201;-69
2024/01/25 05:04:12;;;;;;;18.67;4.37;;;;;;;;;;5030737;28;20206;-67
2024/01/25 05:06:37;;;;;;;22.40;4.30;;;;;;;;;;5047556;28;20276;-69
2024/01/25 05:09:03;;;;;;;13.93;3.93;;;;;;;;;;5026535;28;20266;-70
2024/01/25 05:11:28;;;;;;;18.87;4.27;;;;;;;;;;5030749;28;20180;-69
2024/01/25 05:13:53;;;;;;;19.50;4.03;;;;;;;;;;5034880;28;20209;-69
2024/01/25 05:16:18;;;;;;;25.80;5.77;;;;;;;;;;5036892;28;20599;-69
2024/01/25 05:18:43;;;;;;;28.40;4.47;;;;;;;;;;5033268;28;20594;-69
2024/01/25 05:21:09;;;;;;;18.90;4.50;;;;;;;;;;5032711;28;20653;-69
2024/01/25 05:23:34;;;;;;;26.70;4.97;;;;;;;;;;5032720;28;20248;-69
2024/01/25 05:25:59;;;;;;;21.73;4.93;;;;;;;;;;5026188;28;20172;-69
2024/01/25 05:28:24;;;;;;;24.07;4.60;;;;;;;;;;5024673;28;20178;-68
2024/01/25 05:30:50;;;;;;;25.50;4.73;;;;;;;;;;5008333;28;20175;-68
2024/01/25 05:33:15;;;;;;;23.97;4.53;;;;;;;;;;5015468;28;20304;-69
2024/01/25 05:35:40;;;;;;;29.80;6.43;;;;;;;;;;5031716;28;20214;-68
2024/01/25 05:38:05;;;;;;;20.97;5.67;;;;;;;;;;5032725;28;20223;-69
2024/01/25 05:40:30;;;;;;;26.40;6.70;;;;;;;;;;5031205;28;20166;-68
2024/01/25 05:42:56;;;;;;;23.77;4.77;;;;;;;;;;5033101;28;20228;-68
2024/01/25 05:45:21;;;;;;;18.33;5.00;;;;;;;;;;5018102;28;20195;-68
2024/01/25 05:47:47;;;;;;;28.60;6.60;;;;;;;;;;5008600;28;20747;-68
2024/01/25 05:50:12;;;;;;;33.60;5.50;;;;;;;;;;5012530;28;20688;-69
2024/01/25 05:52:37;;;;;;;24.93;5.73;;;;;;;;;;5030394;28;20688;-69
2024/01/25 05:55:06;;;;;;;23.63;6.17;;;;;;;;;;5012434;28;20206;-69
2024/01/25 05:57:32;;;;;;;20.13;6.00;;;;;;;;;;5031744;28;20622;-69
2024/01/25 05:59:57;;;;;;;23.00;4.00;;;;;;;;;;5034276;28;20189;-69
2024/01/25 06:02:22;;;;;;;19.57;4.67;;;;;;;;;;5032571;28;20556;-69
2024/01/25 06:04:47;;;;;;;28.87;4.83;;;;;;;;;;5023506;28;20205;-67
2024/01/25 06:07:12;;;;;;;25.10;5.73;;;;;;;;;;5012324;28;20178;-69
2024/01/25 06:09:38;;;;;;;22.03;5.10;;;;;;;;;;5030548;28;20170;-70
2024/01/25 06:12:04;;;;;;;20.60;4.93;;;;;;;;;;5012106;28;20193;-69
2024/01/25 06:14:29;;;;;;;20.23;4.67;;;;;;;;;;5035247;28;20217;-69
2024/01/25 06:16:54;;;;;;;17.23;6.10;;;;;;;;;;5030800;28;20179;-68
2024/01/25 06:19:20;;;;;;;17.10;4.60;;;;;;;;;;5021079;28;20184;-69
2024/01/25 06:21:45;;;;;;;22.63;4.57;;;;;;;;;;5032091;28;20181;-70
2024/01/25 06:24:10;;;;;;;14.73;5.03;;;;;;;;;;5024241;28;20260;-69
2024/01/25 06:26:35;;;;;;;19.00;5.00;;;;;;;;;;5028430;28;20186;-70
2024/01/25 06:29:00;;;;;;;18.40;5.00;;;;;;;;;;5032977;28;20174;-69
2024/01/25 06:31:26;;;;;;;17.67;5.23;;;;;;;;;;5031390;28;20174;-69
2024/01/25 06:33:52;;;;;;;20.67;4.67;;;;;;;;;;5032572;28;20280;-69
2024/01/25 06:36:18;;;;;;;9.97;4.27;;;;;;;;;;5015034;28;20235;-71
2024/01/25 06:38:43;;;;;;;27.50;5.10;;;;;;;;;;5031690;28;20607;-69
2024/01/25 06:41:09;;;;;;;18.13;4.63;;;;;;;;;;5032762;28;20634;-69
2024/01/25 06:43:34;;;;;;;17.90;4.90;;;;;;;;;;5025164;28;20320;-69
2024/01/25 06:45:59;;;;;;;31.67;6.83;;;;;;;;;;5029306;28;20174;-69
2024/01/25 06:48:24;;;;;;;30.10;6.20;;;;;;;;;;5031620;28;20166;-69
2024/01/25 06:50:50;;;;;;;21.73;5.30;;;;;;;;;;5014396;28;20170;-70
2024/01/25 06:53:16;;;;;;;26.53;5.80;;;;;;;;;;5032232;28;20681;-70
2024/01/25 06:55:41;;;;;;;26.90;5.53;;;;;;;;;;5032108;28;20223;-70
2024/01/25 06:58:06;;;;;;;27.47;6.70;;;;;;;;;;5014237;28;20174;-70
2024/01/25 07:00:31;;;;;;;30.97;5.73;;;;;;;;;;5024579;28;20229;-69
2024/01/25 07:02:56;;;;;;;26.03;5.80;;;;;;;;;;5023032;28;20167;-70
2024/01/25 07:05:22;;;;;;;26.37;6.23;;;;;;;;;;5036410;28;20186;-69
2024/01/25 07:07:47;;;;;;;22.30;4.93;;;;;;;;;;5031877;28;20178;-69
2024/01/25 07:10:12;;;;;;;13.07;4.63;;;;;;;;;;5032062;28;20175;-70
2024/01/25 07:12:37;;;;;;;17.00;5.03;;;;;;;;;;5032798;28;20649;-70
2024/01/25 07:15:03;;;;;;;29.17;5.80;;;;;;;;;;5031135;28;20205;-70
2024/01/25 07:17:28;;;;;;;19.83;5.90;;;;;;;;;;5030017;28;20179;-69
2024/01/25 07:19:53;;;;;;;26.87;5.80;;;;;;;;;;5023693;28;20167;-70
2024/01/25 07:22:18;;;;;;;21.00;5.63;;;;;;;;;;5026752;28;20177;-69
2024/01/25 07:24:44;;;;;;;23.17;5.57;;;;;;;;;;5040422;28;20174;-69
2024/01/25 07:27:10;;;;;;;30.30;7.73;;;;;;;;;;5054043;28;20900;-68
2024/01/25 07:29:36;;;;;;;16.90;4.40;;;;;;;;;;5020244;28;20185;-69
2024/01/25 07:32:01;;;;;;;30.00;6.93;;;;;;;;;;5032146;28;20171;-70
2024/01/25 07:34:27;;;;;;;29.83;6.90;;;;;;;;;;5030730;28;20306;-70
2024/01/25 07:36:52;;;;;;;23.30;5.50;;;;;;;;;;5031402;28;20171;-70
2024/01/25 07:39:17;;;;;;;27.17;5.97;;;;;;;;;;5019995;28;20265;-70
2024/01/25 07:41:42;;;;;;;26.50;6.33;;;;;;;;;;5008148;28;20175;-69
2024/01/25 07:44:07;;;;;;;93.70;11.67;;;;;;;;;;5029190;28;20305;-68
2024/01/25 07:46:33;;;;;;;50.80;8.83;;;;;;;;;;5035385;28;20651;-70
2024/01/25 07:48:58;;;;;;;43.10;8.20;;;;;;;;;;5027165;28;20174;-69
2024/01/25 07:51:28;;;;;;;27.90;6.13;;;;;;;;;;5031565;28;20182;-70
2024/01/25 07:53:53;;;;;;;25.97;6.60;;;;;;;;;;5031189;28;20198;-70
2024/01/25 07:56:18;;;;;;;26.20;6.63;;;;;;;;;;5027765;28;20646;-70
2024/01/25 07:58:43;;;;;;;19.20;5.60;;;;;;;;;;5007056;28;20186;-70
2024/01/25 08:01:09;;;;;;;22.23;7.10;;;;;;;;;;5009156;28;20723;-69
2024/01/25 08:03:34;;;;;;;21.57;5.90;;;;;;;;;;5020574;28;20225;-69
2024/01/25 08:05:59;;;;;;;29.87;6.70;;;;;;;;;;5031228;28;20178;-69
2024/01/25 08:08:25;;;;;;;30.67;6.63;;;;;;;;;;5030982;28;20228;-69
2024/01/25 08:10:50;;;;;;;26.90;6.93;;;;;;;;;;5030537;28;20182;-69
2024/01/25 08:13:15;;;;;;;34.70;8.33;;;;;;;;;;5023188;28;20259;-70
2024/01/25 08:15:40;;;;;;;28.53;5.83;;;;;;;;;;5030058;28;20206;-70
2024/01/25 08:18:06;;;;;;;34.90;7.37;;;;;;;;;;5011749;28;20170;-70
2024/01/25 08:20:31;;;;;;;25.30;6.97;;;;;;;;;;5030348;28;20170;-70
2024/01/25 08:22:56;;;;;;;34.53;7.70;;;;;;;;;;5030984;28;20181;-70
2024/01/25 08:25:21;;;;;;;25.27;6.13;;;;;;;;;;5031333;28;20193;-70
2024/01/25 08:27:48;;;;;;;24.80;6.83;;;;;;;;;;5030593;28;20233;-69
2024/01/25 08:30:13;;;;;;;23.40;6.70;;;;;;;;;;5010960;28;20662;-70
2024/01/25 08:32:38;;;;;;;26.47;6.10;;;;;;;;;;5025562;28;20277;-70
2024/01/25 08:35:04;;;;;;;30.13;7.80;;;;;;;;;;5018529;28;20205;-69
2024/01/25 08:37:29;;;;;;;18.80;6.27;;;;;;;;;;5050872;28;20237;-69
2024/01/25 08:39:54;;;;;;;21.03;6.40;;;;;;;;;;5018117;28;20181;-70
2024/01/25 08:42:20;;;;;;;30.27;6.87;;;;;;;;;;5030150;28;20178;-70
2024/01/25 08:44:49;;;;;;;27.17;5.43;;;;;;;;;;5024966;28;20222;-69
2024/01/25 08:47:15;;;;;;;22.30;5.60;;;;;;;;;;5028649;28;20185;-69
2024/01/25 08:49:40;;;;;;;31.13;6.03;;;;;;;;;;5009988;28;20661;-69
2024/01/25 08:52:06;;;;;;;21.33;6.10;;;;;;;;;;5029249;28;20174;-69
2024/01/25 08:54:31;;;;;;;31.93;6.80;;;;;;;;;;5031395;28;20697;-69
2024/01/25 08:56:57;;;;;;;26.53;5.73;;;;;;;;;;5033777;28;20185;-68
2024/01/25 08:59:22;;;;;;;26.03;8.00;;;;;;;;;;5034131;28;20252;-69
2024/01/25 09:01:47;;;;;;;20.53;6.07;;;;;;;;;;5034481;28;20181;-69
2024/01/25 09:04:13;;;;;;;26.03;6.13;;;;;;;;;;5032992;28;20198;-69
2024/01/25 09:06:38;;;;;;;32.73;8.07;;;;;;;;;;5033527;28;20658;-69
2024/01/25 09:09:03;;;;;;;38.80;10.17;;;;;;;;;;5033174;28;20201;-69
2024/01/25 09:11:28;;;;;;;27.87;11.00;;;;;;;;;;5013225;28;20565;-69
2024/01/25 09:13:53;;;;;;;30.60;11.60;;;;;;;;;;5013999;28;20194;-69
2024/01/25 09:16:19;;;;;;;30.93;11.50;;;;;;;;;;5032971;28;20211;-69
2024/01/25 09:18:45;;;;;;;30.67;10.60;;;;;;;;;;5015468;28;20680;-69
2024/01/25 09:21:10;;;;;;;30.57;10.83;;;;;;;;;;5034109;28;20228;-69
2024/01/25 09:23:35;;;;;;;28.83;10.77;;;;;;;;;;5034358;28;20289;-69
2024/01/25 09:26:00;;;;;;;32.67;10.70;;;;;;;;;;5034084;28;20513;-69
2024/01/25 09:28:25;;;;;;;23.37;10.13;;;;;;;;;;5033827;28;20210;-69
2024/01/25 09:30:51;;;;;;;18.50;10.00;;;;;;;;;;5034577;28;20208;-68
2024/01/25 09:33:16;;;;;;;26.43;9.97;;;;;;;;;;5033599;28;20193;-69
2024/01/25 09:35:41;;;;;;;22.17;8.97;;;;;;;;;;5034525;28;20677;-69
2024/01/25 09:38:07;;;;;;;33.30;11.60;;;;;;;;;;5037508;28;20199;-69
2024/01/25 09:40:33;;;;;;;27.47;8.20;;;;;;;;;;5033886;28;20226;-69
2024/01/25 09:42:58;;;;;;;28.23;8.70;;;;;;;;;;5034014;28;20642;-69
2024/01/25 09:45:23;;;;;;;29.17;9.70;;;;;;;;;;5037781;23;20332;-69
2024/01/25 09:47:49;;;;;;;28.27;9.93;;;;;;;;;;5012976;28;20186;-70
2024/01/25 09:50:14;;;;;;;24.03;10.70;;;;;;;;;;5021015;28;20252;-69
2024/01/25 09:52:41;;;;;;;25.20;9.80;;;;;;;;;;5023359;28;20301;-71
2024/01/25 09:55:07;;;;;;;30.97;9.10;;;;;;;;;;5019784;28;20230;-70
2024/01/25 09:57:34;;;;;;;33.57;7.77;;;;;;;;;;5013117;28;20638;-72
2024/01/25 09:59:59;;;;;;;28.73;6.53;;;;;;;;;;5013184;28;20261;-71
2024/01/25 10:02:24;;;;;;;25.03;7.37;;;;;;;;;;4985077;28;20262;-71
2024/01/25 10:04:53;;;;;;;24.53;7.60;;;;;;;;;;5010121;28;20209;-70
2024/01/25 10:07:37;;;;;;;22.23;7.37;;;;;;;;;;5012903;28;20649;-70
2024/01/25 10:10:04;;;;;;;21.00;5.67;;;;;;;;;;4994711;28;20171;-70
2024/01/25 10:12:29;;;;;;;29.53;7.50;;;;;;;;;;5013313;28;20183;-71
2024/01/25 10:14:54;;;;;;;20.73;5.87;;;;;;;;;;5011896;28;20229;-71
2024/01/25 10:17:19;;;;;;;22.67;6.33;;;;;;;;;;5012214;28;20181;-71
2024/01/25 10:19:45;;;;;;;29.53;8.10;;;;;;;;;;4987366;28;20658;-71
2024/01/25 10:22:12;;;;;;;22.63;5.70;;;;;;;;;;4993352;28;20274;-71
2024/01/25 10:24:38;;;;;;;30.23;6.23;;;;;;;;;;5011234;28;20760;-70
2024/01/25 10:27:03;;;;;;;24.97;7.00;;;;;;;;;;5011126;28;20657;-69
2024/01/25 10:29:28;;;;;;;29.77;6.77;;;;;;;;;;4999650;28;20175;-69
2024/01/25 10:31:54;;;;;;;16.40;6.07;;;;;;;;;;5008356;28;20581;-69
2024/01/25 10:34:20;;;;;;;17.83;5.43;;;;;;;;;;5012348;28;20199;-70
2024/01/25 10:36:45;;;;;;;13.40;6.03;;;;;;;;;;5005543;28;20553;-70
2024/01/25 10:39:11;;;;;;;27.80;6.93;;;;;;;;;;5011475;28;20171;-70
2024/01/25 10:41:36;;;;;;;25.67;7.10;;;;;;;;;;5012956;28;20183;-71
2024/01/25 10:44:03;;;;;;;23.93;6.93;;;;;;;;;;5011356;28;20207;-70
2024/01/25 10:46:28;;;;;;;18.83;5.37;;;;;;;;;;4988530;28;20182;-70
2024/01/25 10:48:57;;;;;;;19.17;7.20;;;;;;;;;;5008440;28;20182;-70
2024/01/25 10:51:22;;;;;;;20.87;6.07;;;;;;;;;;5008451;28;20530;-70
2024/01/25 10:53:47;;;;;;;25.20;5.90;;;;;;;;;;5011766;28;20217;-69
2024/01/25 10:56:13;;;;;;;23.50;6.33;;;;;;;;;;5012171;28;20584;-70
2024/01/25 10:58:40;;;;;;;26.63;6.67;;;;;;;;;;5010884;28;20190;-71
2024/01/25 11:01:10;;;;;;;16.73;5.60;;;;;;;;;;5012647;28;20179;-71
2024/01/25 11:03:35;;;;;;;26.13;6.13;;;;;;;;;;5011705;28;20202;-70
2024/01/25 11:06:10;;;;;;;28.67;6.60;;;;;;;;;;5002639;28;20171;-71
2024/01/25 11:08:39;;;;;;;20.07;6.40;;;;;;;;;;5008518;28;20193;-71
2024/01/25 11:11:11;;;;;;;15.47;6.33;;;;;;;;;;5009423;28;20179;-70
2024/01/25 11:13:38;;;;;;;21.20;7.50;;;;;;;;;;5006943;28;20215;-71
2024/01/25 11:16:11;;;;;;;27.57;7.73;;;;;;;;;;4995093;28;20226;-70
2024/01/25 11:18:46;;;;;;;28.53;7.93;;;;;;;;;;5010223;28;20179;-70
2024/01/25 11:21:13;;;;;;;28.30;6.83;;;;;;;;;;5011375;28;20258;-70
2024/01/25 11:23:42;;;;;;;23.67;6.63;;;;;;;;;;5009326;28;20584;-70
2024/01/25 11:26:08;;;;;;;21.60;7.00;;;;;;;;;;5005003;28;20561;-72
2024/01/25 11:28:33;;;;;;;29.13;8.00;;;;;;;;;;5015086;28;20189;-70
2024/01/25 11:30:59;;;;;;;23.33;7.50;;;;;;;;;;5008424;28;20705;-72
2024/01/25 11:33:24;;;;;;;18.27;7.53;;;;;;;;;;5011183;28;20179;-70
2024/01/25 11:35:56;;;;;;;21.67;6.87;;;;;;;;;;5010849;28;20210;-69
2024/01/25 11:38:21;;;;;;;27.70;8.27;;;;;;;;;;5010627;28;20225;-70
2024/01/25 11:40:46;;;;;;;21.53;8.27;;;;;;;;;;5011445;28;20178;-70
2024/01/25 11:43:13;;;;;;;22.60;7.67;;;;;;;;;;5011735;28;20561;-70
2024/01/25 11:45:42;;;;;;;29.30;8.73;;;;;;;;;;5008513;28;20651;-70
2024/01/25 11:48:07;;;;;;;20.30;7.17;;;;;;;;;;5004626;28;20187;-70
2024/01/25 11:50:32;;;;;;;27.57;8.33;;;;;;;;;;5005643;28;20174;-74
2024/01/25 11:52:58;;;;;;;28.77;8.60;;;;;;;;;;5011219;28;20183;-70
2024/01/25 11:55:23;;;;;;;21.37;8.07;;;;;;;;;;5005848;28;20202;-71
2024/01/25 11:57:48;;;;;;;24.47;8.43;;;;;;;;;;4988748;28;20706;-70
2024/01/25 12:00:14;;;;;;;22.27;8.17;;;;;;;;;;5006197;28;20210;-71
2024/01/25 12:02:39;;;;;;;22.77;7.53;;;;;;;;;;5014389;28;20182;-71
2024/01/25 12:05:05;;;;;;;20.57;9.03;;;;;;;;;;5001575;28;20200;-69
2024/01/25 12:07:30;;;;;;;29.20;9.40;;;;;;;;;;5006434;28;20187;-71
2024/01/25 12:10:02;;;;;;;23.50;7.53;;;;;;;;;;5004708;28;20241;-70
2024/01/25 12:12:27;;;;;;;28.57;8.07;;;;;;;;;;5011084;28;20183;-71
2024/01/25 12:14:57;;;;;;;27.03;9.03;;;;;;;;;;5010340;28;20221;-71
2024/01/25 12:17:22;;;;;;;24.07;8.40;;;;;;;;;;5006070;28;20183;-70
2024/01/25 12:19:47;;;;;;;21.97;8.40;;;;;;;;;;5010484;28;20183;-70
2024/01/25 12:22:19;;;;;;;27.57;7.83;;;;;;;;;;5004110;28;20171;-70
2024/01/25 12:24:46;;;;;;;32.43;7.90;;;;;;;;;;5001558;28;20281;-70
2024/01/25 12:27:11;;;;;;;29.93;9.03;;;;;;;;;;5007197;28;20291;-71
2024/01/25 12:29:36;;;;;;;26.33;8.73;;;;;;;;;;5007246;28;20269;-72
2024/01/25 12:32:01;;;;;;;22.77;8.00;;;;;;;;;;5007043;28;20627;-70
2024/01/25 12:34:26;;;;;;;21.23;7.77;;;;;;;;;;5008708;28;20651;-70
2024/01/25 12:36:52;;;;;;;31.77;8.87;;;;;;;;;;5009991;28;20599;-70
2024/01/25 12:39:18;;;;;;;29.40;10.03;;;;;;;;;;5009445;28;20782;-71
2024/01/25 12:41:43;;;;;;;32.13;8.93;;;;;;;;;;4992173;28;20259;-70
2024/01/25 12:44:08;;;;;;;20.17;7.73;;;;;;;;;;5010313;28;20629;-71
2024/01/25 12:46:34;;;;;;;29.73;7.90;;;;;;;;;;5008592;28;20241;-70
2024/01/25 12:48:59;;;;;;;25.10;7.47;;;;;;;;;;5002525;28;20175;-70
2024/01/25 12:51:25;;;;;;;22.40;7.90;;;;;;;;;;5009964;28;20171;-71
2024/01/25 12:53:50;;;;;;;20.37;8.63;;;;;;;;;;5007777;28;20682;-71
2024/01/25 12:56:15;;;;;;;28.97;7.73;;;;;;;;;;4985201;28;20194;-69
2024/01/25 12:58:40;;;;;;;19.53;7.67;;;;;;;;;;5008984;28;20178;-71
2024/01/25 13:01:06;;;;;;;23.27;8.87;;;;;;;;;;5010794;28;20179;-71
2024/01/25 13:03:31;;;;;;;24.67;8.83;;;;;;;;;;4988686;28;20610;-71
2024/01/25 13:05:56;;;;;;;35.37;10.50;;;;;;;;;;5008732;28;20182;-71
2024/01/25 13:08:22;;;;;;;24.50;7.73;;;;;;;;;;5009149;28;20227;-69
2024/01/25 13:10:47;;;;;;;33.00;8.40;;;;;;;;;;5010463;28;20187;-71
2024/01/25 13:13:12;;;;;;;38.30;9.90;;;;;;;;;;5010701;28;20182;-71
2024/01/25 13:15:37;;;;;;;27.00;8.53;;;;;;;;;;5009832;28;20203;-70
2024/01/25 13:18:03;;;;;;;36.83;8.90;;;;;;;;;;4987124;28;20176;-70
2024/01/25 13:20:28;;;;;;;24.17;8.03;;;;;;;;;;5009600;28;20617;-71
2024/01/25 13:22:53;;;;;;;23.33;8.63;;;;;;;;;;4991949;28;20603;-70
2024/01/25 13:25:18;;;;;;;30.77;8.27;;;;;;;;;;5004105;28;20249;-71
2024/01/25 13:27:44;;;;;;;28.13;7.37;;;;;;;;;;5010236;28;20538;-71
2024/01/25 13:30:11;;;;;;;30.10;8.80;;;;;;;;;;5010266;28;20237;-70
2024/01/25 13:32:37;;;;;;;23.57;8.17;;;;;;;;;;4991157;28;20682;-71
2024/01/25 13:35:03;;;;;;;26.37;7.67;;;;;;;;;;5009288;28;20191;-70
2024/01/25 13:37:28;;;;;;;23.17;7.50;;;;;;;;;;4991926;28;20278;-71
2024/01/25 13:39:53;;;;;;;27.13;8.47;;;;;;;;;;5010059;28;20185;-70
2024/01/25 13:42:18;;;;;;;23.27;8.50;;;;;;;;;;5005514;28;20226;-69
2024/01/25 13:44:44;;;;;;;19.33;7.40;;;;;;;;;;4986496;28;20212;-71
2024/01/25 13:47:09;;;;;;;19.83;6.90;;;;;;;;;;5012965;28;20606;-71
2024/01/25 13:49:35;;;;;;;31.70;9.53;;;;;;;;;;5005125;28;20179;-71
2024/01/25 13:52:01;;;;;;;28.53;7.40;;;;;;;;;;5008674;28;20187;-70
2024/01/25 13:54:26;;;;;;;21.27;7.85;;;;;;;;;;5011200;28;20706;-70
2024/01/25 13:56:52;;;;;;;31.83;8.93;;;;;;;;;;5011938;28;20230;-70
2024/01/25 13:59:17;;;;;;;24.43;8.63;;;;;;;;;;5012174;28;20179;-70
2024/01/25 14:01:43;;;;;;;19.10;7.20;;;;;;;;;;5011413;28;20258;-69
2024/01/25 14:04:08;;;;;;;29.77;7.87;;;;;;;;;;5012594;28;20195;-70
2024/01/25 14:06:33;;;;;;;18.63;6.70;;;;;;;;;;4991995;28;20324;-70
2024/01/25 14:08:58;;;;;;;32.67;8.60;;;;;;;;;;4998856;28;20679;-72
2024/01/25 14:11:26;;;;;;;23.53;7.93;;;;;;;;;;5013901;28;20179;-70
2024/01/25 14:13:51;;;;;;;24.77;8.10;;;;;;;;;;5002694;28;20474;-71
2024/01/25 14:16:17;;;;;;;23.23;6.97;;;;;;;;;;5008648;28;20697;-71
2024/01/25 14:18:43;;;;;;;23.87;8.57;;;;;;;;;;4990764;28;20194;-70